METAR Data
IDs: Format: Raw Decoded Include TAF

Data at: 0104 UTC 06 Dec 2019

METAR for:KADW (Andrews AFB, MD, US)
Text:KADW 060056Z AUTO 30005KT 10SM CLR 05/M06 A3011 RMK AO2 SLP205 T00451058
Temperature: 4.5°C ( 40°F)
Dewpoint: -5.8°C ( 22°F) [RH = 47%]
Pressure (altimeter):30.11 inches Hg (1019.7 mb) [Sea level pressure: 1020.5 mb]
Winds:from the WNW (300 degrees) at 6 MPH (5 knots; 2.6 m/s)
Visibility:10 or more sm (16+ km)
Ceiling:at least 12,000 feet AGL
Clouds:sky clear below 12,000 feet AGL
QC Flag:automated observation with no human augmentation